sensor_id;sensor_type;location;lat;lon;timestamp;noise_LAeq;noise_LA_min;noise_LA_max;noise_LA01;noise_LA95
58303;Laerm;44109;52.398;7.024;2023-03-23T00:00:29;48.50;36.28;58.30;;
58303;Laerm;44109;52.398;7.024;2023-03-23T00:02:58;48.45;35.24;58.19;;
58303;Laerm;44109;52.398;7.024;2023-03-23T00:05:26;50.26;34.94;63.13;;
58303;Laerm;44109;52.398;7.024;2023-03-23T00:07:55;49.11;36.76;58.09;;
58303;Laerm;44109;52.398;7.024;2023-03-23T00:10:22;48.32;34.60;58.17;;
58303;Laerm;44109;52.398;7.024;2023-03-23T00:12:52;48.92;37.86;58.22;;
58303;Laerm;44109;52.398;7.024;2023-03-23T00:15:19;49.18;36.04;59.46;;
58303;Laerm;44109;52.398;7.024;2023-03-23T00:17:51;48.16;34.54;58.45;;
58303;Laerm;44109;52.398;7.024;2023-03-23T00:20:19;49.43;35.29;58.23;;
58303;Laerm;44109;52.398;7.024;2023-03-23T00:22:50;49.82;35.16;59.77;;
58303;Laerm;44109;52.398;7.024;2023-03-23T00:25:18;49.95;34.21;67.11;;
58303;Laerm;44109;52.398;7.024;2023-03-23T00:27:45;49.06;35.04;58.68;;
58303;Laerm;44109;52.398;7.024;2023-03-23T00:30:15;48.41;35.41;59.92;;
58303;Laerm;44109;52.398;7.024;2023-03-23T00:32:43;48.36;34.90;58.39;;
58303;Laerm;44109;52.398;7.024;2023-03-23T00:35:11;48.24;34.51;58.21;;
58303;Laerm;44109;52.398;7.024;2023-03-23T00:37:39;48.49;34.09;59.11;;
58303;Laerm;44109;52.398;7.024;2023-03-23T00:40:07;49.56;36.79;60.73;;
58303;Laerm;44109;52.398;7.024;2023-03-23T00:42:36;49.01;35.59;58.11;;
58303;Laerm;44109;52.398;7.024;2023-03-23T00:45:05;49.07;36.83;58.26;;
58303;Laerm;44109;52.398;7.024;2023-03-23T00:47:38;48.46;33.36;58.16;;
58303;Laerm;44109;52.398;7.024;2023-03-23T00:50:08;48.23;33.19;58.93;;
58303;Laerm;44109;52.398;7.024;2023-03-23T00:52:36;48.65;34.05;66.68;;
58303;Laerm;44109;52.398;7.024;2023-03-23T00:55:05;48.31;32.78;58.34;;
58303;Laerm;44109;52.398;7.024;2023-03-23T00:57:32;48.25;33.65;59.36;;
58303;Laerm;44109;52.398;7.024;2023-03-23T01:00:00;48.07;33.06;58.41;;
58303;Laerm;44109;52.398;7.024;2023-03-23T01:02:41;47.78;33.86;61.56;;
58303;Laerm;44109;52.398;7.024;2023-03-23T01:05:10;48.10;32.55;65.34;;
58303;Laerm;44109;52.398;7.024;2023-03-23T01:07:38;48.10;32.96;62.86;;
58303;Laerm;44109;52.398;7.024;2023-03-23T01:10:07;48.27;33.59;65.52;;
58303;Laerm;44109;52.398;7.024;2023-03-23T01:12:35;49.42;34.17;78.36;;
58303;Laerm;44109;52.398;7.024;2023-03-23T01:15:03;48.44;34.16;70.60;;
58303;Laerm;44109;52.398;7.024;2023-03-23T01:17:34;48.61;33.14;58.51;;
58303;Laerm;44109;52.398;7.024;2023-03-23T01:20:04;48.15;33.22;57.98;;
58303;Laerm;44109;52.398;7.024;2023-03-23T01:22:33;48.10;33.13;58.17;;
58303;Laerm;44109;52.398;7.024;2023-03-23T01:25:01;48.12;33.34;58.17;;
58303;Laerm;44109;52.398;7.024;2023-03-23T01:27:28;48.19;33.50;60.99;;
58303;Laerm;44109;52.398;7.024;2023-03-23T01:29:57;49.09;34.09;67.60;;
58303;Laerm;44109;52.398;7.024;2023-03-23T01:32:24;49.35;33.15;72.76;;
58303;Laerm;44109;52.398;7.024;2023-03-23T01:34:52;49.27;34.32;76.18;;
58303;Laerm;44109;52.398;7.024;2023-03-23T01:37:21;50.60;33.31;79.17;;
58303;Laerm;44109;52.398;7.024;2023-03-23T01:39:53;49.44;34.18;74.33;;
58303;Laerm;44109;52.398;7.024;2023-03-23T01:42:22;50.05;33.29;75.63;;
58303;Laerm;44109;52.398;7.024;2023-03-23T01:45:32;47.93;33.66;66.06;;
58303;Laerm;44109;52.398;7.024;2023-03-23T01:48:10;47.95;32.38;58.17;;
58303;Laerm;44109;52.398;7.024;2023-03-23T01:50:51;48.59;33.88;59.58;;
58303;Laerm;44109;52.398;7.024;2023-03-23T01:53:30;48.10;34.14;58.70;;
58303;Laerm;44109;52.398;7.024;2023-03-23T01:56:01;48.74;33.20;58.33;;
58303;Laerm;44109;52.398;7.024;2023-03-23T01:58:33;48.47;33.98;63.85;;
58303;Laerm;44109;52.398;7.024;2023-03-23T02:01:06;49.84;35.14;72.32;;
58303;Laerm;44109;52.398;7.024;2023-03-23T02:03:36;50.54;34.99;75.17;;
58303;Laerm;44109;52.398;7.024;2023-03-23T02:06:06;51.86;36.04;75.94;;
58303;Laerm;44109;52.398;7.024;2023-03-23T02:08:36;50.62;35.11;72.67;;
58303;Laerm;44109;52.398;7.024;2023-03-23T02:11:13;48.61;34.18;63.70;;
58303;Laerm;44109;52.398;7.024;2023-03-23T02:13:42;48.98;35.34;67.24;;
58303;Laerm;44109;52.398;7.024;2023-03-23T02:16:21;48.22;34.43;60.35;;
58303;Laerm;44109;52.398;7.024;2023-03-23T02:19:18;47.76;34.78;57.87;;
58303;Laerm;44109;52.398;7.024;2023-03-23T02:22:41;47.52;35.53;58.39;;
58303;Laerm;44109;52.398;7.024;2023-03-23T02:25:41;47.90;34.94;64.29;;
58303;Laerm;44109;52.398;7.024;2023-03-23T02:32:00;46.97;33.26;57.78;;
58303;Laerm;44109;52.398;7.024;2023-03-23T02:34:39;49.54;34.05;62.01;;
58303;Laerm;44109;52.398;7.024;2023-03-23T02:37:14;48.27;33.96;58.14;;
58303;Laerm;44109;52.398;7.024;2023-03-23T02:39:47;48.82;34.46;60.17;;
58303;Laerm;44109;52.398;7.024;2023-03-23T02:42:20;38.75;33.44;53.81;;
58303;Laerm;44109;52.398;7.024;2023-03-23T02:44:52;48.32;33.42;58.16;;
58303;Laerm;44109;52.398;7.024;2023-03-23T02:47:25;48.99;33.66;64.21;;
58303;Laerm;44109;52.398;7.024;2023-03-23T02:49:58;48.31;34.13;58.38;;
58303;Laerm;44109;52.398;7.024;2023-03-23T02:52:30;48.20;32.94;58.92;;
58303;Laerm;44109;52.398;7.024;2023-03-23T02:55:01;47.87;31.86;57.88;;
58303;Laerm;44109;52.398;7.024;2023-03-23T02:57:31;47.84;32.33;58.09;;
58303;Laerm;44109;52.398;7.024;2023-03-23T02:59:59;49.06;32.89;59.15;;
58303;Laerm;44109;52.398;7.024;2023-03-23T03:02:29;48.34;33.13;58.33;;
58303;Laerm;44109;52.398;7.024;2023-03-23T03:05:09;47.34;32.42;58.01;;
58303;Laerm;44109;52.398;7.024;2023-03-23T03:07:56;47.61;32.92;57.99;;
58303;Laerm;44109;52.398;7.024;2023-03-23T03:10:31;48.28;34.03;58.14;;
58303;Laerm;44109;52.398;7.024;2023-03-23T03:13:10;48.71;33.01;65.55;;
58303;Laerm;44109;52.398;7.024;2023-03-23T03:15:45;47.99;32.40;58.26;;
58303;Laerm;44109;52.398;7.024;2023-03-23T03:18:37;48.09;32.78;58.49;;
58303;Laerm;44109;52.398;7.024;2023-03-23T03:21:12;48.30;33.06;58.55;;
58303;Laerm;44109;52.398;7.024;2023-03-23T03:23:43;49.06;33.95;59.28;;
58303;Laerm;44109;52.398;7.024;2023-03-23T03:26:13;48.89;33.77;58.60;;
58303;Laerm;44109;52.398;7.024;2023-03-23T03:28:45;49.49;34.12;77.86;;
58303;Laerm;44109;52.398;7.024;2023-03-23T03:31:19;74.35;40.88;101.32;;
58303;Laerm;44109;52.398;7.024;2023-03-23T03:33:47;51.48;35.87;71.65;;
58303;Laerm;44109;52.398;7.024;2023-03-23T03:36:20;54.34;34.12;76.95;;
58303;Laerm;44109;52.398;7.024;2023-03-23T03:38:50;56.89;35.17;84.19;;
58303;Laerm;44109;52.398;7.024;2023-03-23T03:41:19;48.86;34.09;65.12;;
58303;Laerm;44109;52.398;7.024;2023-03-23T03:43:47;48.54;34.15;66.06;;
58303;Laerm;44109;52.398;7.024;2023-03-23T03:46:15;48.17;34.01;58.11;;
58303;Laerm;44109;52.398;7.024;2023-03-23T03:48:42;49.31;34.09;61.43;;
58303;Laerm;44109;52.398;7.024;2023-03-23T03:51:10;50.03;35.75;60.53;;
58303;Laerm;44109;52.398;7.024;2023-03-23T03:53:39;48.82;35.77;58.22;;
58303;Laerm;44109;52.398;7.024;2023-03-23T03:56:07;50.48;38.32;62.73;;
58303;Laerm;44109;52.398;7.024;2023-03-23T03:58:34;50.42;35.15;67.50;;
58303;Laerm;44109;52.398;7.024;2023-03-23T04:01:03;49.99;34.82;61.67;;
58303;Laerm;44109;52.398;7.024;2023-03-23T04:03:30;50.09;35.22;62.79;;
58303;Laerm;44109;52.398;7.024;2023-03-23T04:05:58;49.86;37.27;59.39;;
58303;Laerm;44109;52.398;7.024;2023-03-23T04:08:26;50.47;39.12;60.17;;
58303;Laerm;44109;52.398;7.024;2023-03-23T04:10:56;51.52;39.83;60.44;;
58303;Laerm;44109;52.398;7.024;2023-03-23T04:13:23;51.18;38.08;67.66;;
58303;Laerm;44109;52.398;7.024;2023-03-23T04:15:51;49.23;38.15;61.00;;
58303;Laerm;44109;52.398;7.024;2023-03-23T04:18:19;49.75;36.26;58.96;;
58303;Laerm;44109;52.398;7.024;2023-03-23T04:20:48;49.98;37.46;60.42;;
58303;Laerm;44109;52.398;7.024;2023-03-23T04:23:19;48.99;35.89;58.23;;
58303;Laerm;44109;52.398;7.024;2023-03-23T04:25:49;49.72;36.79;60.79;;
58303;Laerm;44109;52.398;7.024;2023-03-23T04:28:19;48.88;33.50;58.66;;
58303;Laerm;44109;52.398;7.024;2023-03-23T04:30:51;49.50;35.18;59.52;;
58303;Laerm;44109;52.398;7.024;2023-03-23T04:33:20;50.35;36.38;61.15;;
58303;Laerm;44109;52.398;7.024;2023-03-23T04:35:48;50.21;38.05;59.00;;
58303;Laerm;44109;52.398;7.024;2023-03-23T04:38:17;49.94;38.82;61.16;;
58303;Laerm;44109;52.398;7.024;2023-03-23T04:40:48;51.46;39.19;68.46;;
58303;Laerm;44109;52.398;7.024;2023-03-23T04:43:19;50.80;36.67;61.74;;
58303;Laerm;44109;52.398;7.024;2023-03-23T04:45:53;51.86;36.89;66.83;;
58303;Laerm;44109;52.398;7.024;2023-03-23T04:48:22;55.88;35.63;83.96;;
58303;Laerm;44109;52.398;7.024;2023-03-23T04:50:50;51.34;37.64;70.87;;
58303;Laerm;44109;52.398;7.024;2023-03-23T04:53:18;53.10;36.11;68.78;;
58303;Laerm;44109;52.398;7.024;2023-03-23T04:55:47;60.43;38.41;80.45;;
58303;Laerm;44109;52.398;7.024;2023-03-23T04:58:16;57.20;36.89;73.91;;
58303;Laerm;44109;52.398;7.024;2023-03-23T05:00:45;55.76;37.99;69.69;;
58303;Laerm;44109;52.398;7.024;2023-03-23T05:03:15;54.29;37.73;68.53;;
58303;Laerm;44109;52.398;7.024;2023-03-23T05:05:44;57.62;39.65;76.85;;
58303;Laerm;44109;52.398;7.024;2023-03-23T05:08:18;57.54;38.97;74.79;;
58303;Laerm;44109;52.398;7.024;2023-03-23T05:10:52;52.34;39.15;66.88;;
58303;Laerm;44109;52.398;7.024;2023-03-23T05:13:20;50.80;38.08;65.47;;
58303;Laerm;44109;52.398;7.024;2023-03-23T05:15:49;51.92;38.23;66.74;;
58303;Laerm;44109;52.398;7.024;2023-03-23T05:18:17;51.88;38.24;73.04;;
58303;Laerm;44109;52.398;7.024;2023-03-23T05:20:46;50.92;37.61;59.24;;
58303;Laerm;44109;52.398;7.024;2023-03-23T05:23:15;50.88;37.94;61.10;;
58303;Laerm;44109;52.398;7.024;2023-03-23T05:25:43;52.45;41.06;66.94;;
58303;Laerm;44109;52.398;7.024;2023-03-23T05:28:11;50.55;38.90;63.72;;
58303;Laerm;44109;52.398;7.024;2023-03-23T05:30:39;54.50;42.44;74.32;;
58303;Laerm;44109;52.398;7.024;2023-03-23T05:33:11;55.03;42.38;74.33;;
58303;Laerm;44109;52.398;7.024;2023-03-23T05:35:39;51.80;40.64;63.45;;
58303;Laerm;44109;52.398;7.024;2023-03-23T05:38:06;51.16;39.18;65.43;;
58303;Laerm;44109;52.398;7.024;2023-03-23T05:40:34;51.81;41.36;70.63;;
58303;Laerm;44109;52.398;7.024;2023-03-23T05:43:02;52.51;43.12;59.63;;
58303;Laerm;44109;52.398;7.024;2023-03-23T05:45:30;53.99;44.37;68.42;;
58303;Laerm;44109;52.398;7.024;2023-03-23T05:47:57;54.48;45.39;68.69;;
58303;Laerm;44109;52.398;7.024;2023-03-23T05:50:26;53.26;39.38;74.24;;
58303;Laerm;44109;52.398;7.024;2023-03-23T05:52:55;53.75;42.02;66.91;;
58303;Laerm;44109;52.398;7.024;2023-03-23T05:55:23;53.68;45.30;69.47;;
58303;Laerm;44109;52.398;7.024;2023-03-23T05:57:51;55.26;40.19;73.55;;
58303;Laerm;44109;52.398;7.024;2023-03-23T06:00:20;56.54;42.68;78.34;;
58303;Laerm;44109;52.398;7.024;2023-03-23T06:02:50;54.58;42.52;76.72;;
58303;Laerm;44109;52.398;7.024;2023-03-23T06:05:18;52.91;44.69;69.79;;
58303;Laerm;44109;52.398;7.024;2023-03-23T06:07:47;53.61;45.01;71.34;;
58303;Laerm;44109;52.398;7.024;2023-03-23T06:10:15;56.17;45.82;80.29;;
58303;Laerm;44109;52.398;7.024;2023-03-23T06:12:43;52.08;44.25;61.05;;
58303;Laerm;44109;52.398;7.024;2023-03-23T06:15:12;54.60;45.48;67.87;;
58303;Laerm;44109;52.398;7.024;2023-03-23T06:17:40;54.28;44.76;70.78;;
58303;Laerm;44109;52.398;7.024;2023-03-23T06:20:10;54.00;45.40;71.50;;
58303;Laerm;44109;52.398;7.024;2023-03-23T06:22:39;53.49;44.67;63.27;;
58303;Laerm;44109;52.398;7.024;2023-03-23T06:25:10;53.08;45.79;77.04;;
58303;Laerm;44109;52.398;7.024;2023-03-23T06:27:39;54.96;45.37;77.35;;
58303;Laerm;44109;52.398;7.024;2023-03-23T06:30:08;53.64;44.85;66.01;;
58303;Laerm;44109;52.398;7.024;2023-03-23T06:32:38;55.13;47.43;67.34;;
58303;Laerm;44109;52.398;7.024;2023-03-23T06:35:07;54.13;45.41;68.26;;
58303;Laerm;44109;52.398;7.024;2023-03-23T06:37:35;53.84;44.34;65.91;;
58303;Laerm;44109;52.398;7.024;2023-03-23T06:40:05;55.53;45.77;82.60;;
58303;Laerm;44109;52.398;7.024;2023-03-23T06:42:34;55.19;44.49;68.55;;
58303;Laerm;44109;52.398;7.024;2023-03-23T06:45:03;54.52;45.54;71.38;;
58303;Laerm;44109;52.398;7.024;2023-03-23T06:47:31;53.25;45.32;70.07;;
58303;Laerm;44109;52.398;7.024;2023-03-23T06:49:59;53.00;43.27;60.88;;
58303;Laerm;44109;52.398;7.024;2023-03-23T06:52:26;52.77;45.26;65.45;;
58303;Laerm;44109;52.398;7.024;2023-03-23T06:54:54;55.77;45.72;81.48;;
58303;Laerm;44109;52.398;7.024;2023-03-23T06:57:22;52.90;45.63;71.30;;
58303;Laerm;44109;52.398;7.024;2023-03-23T06:59:51;54.14;44.98;73.80;;
58303;Laerm;44109;52.398;7.024;2023-03-23T07:02:18;53.83;45.36;76.09;;
58303;Laerm;44109;52.398;7.024;2023-03-23T07:04:46;54.06;46.00;69.00;;
58303;Laerm;44109;52.398;7.024;2023-03-23T07:07:14;53.60;46.50;65.08;;
58303;Laerm;44109;52.398;7.024;2023-03-23T07:09:44;55.15;45.69;73.78;;
58303;Laerm;44109;52.398;7.024;2023-03-23T07:12:12;53.31;44.68;65.73;;
58303;Laerm;44109;52.398;7.024;2023-03-23T07:14:40;55.31;44.23;85.43;;
58303;Laerm;44109;52.398;7.024;2023-03-23T07:17:09;63.42;46.28;91.19;;
58303;Laerm;44109;52.398;7.024;2023-03-23T07:19:37;58.54;45.62;83.16;;
58303;Laerm;44109;52.398;7.024;2023-03-23T07:22:06;59.97;47.99;81.77;;
58303;Laerm;44109;52.398;7.024;2023-03-23T07:24:34;65.24;48.61;89.15;;
58303;Laerm;44109;52.398;7.024;2023-03-23T07:27:02;64.98;48.40;90.37;;
58303;Laerm;44109;52.398;7.024;2023-03-23T07:29:30;64.54;47.82;89.31;;
58303;Laerm;44109;52.398;7.024;2023-03-23T07:32:01;55.65;46.74;76.89;;
58303;Laerm;44109;52.398;7.024;2023-03-23T07:34:30;55.79;44.34;83.80;;
58303;Laerm;44109;52.398;7.024;2023-03-23T07:36:58;52.21;43.73;69.45;;
58303;Laerm;44109;52.398;7.024;2023-03-23T07:39:26;51.55;43.02;67.00;;
58303;Laerm;44109;52.398;7.024;2023-03-23T07:41:54;52.11;41.21;68.38;;
58303;Laerm;44109;52.398;7.024;2023-03-23T07:44:22;52.39;42.54;65.15;;
58303;Laerm;44109;52.398;7.024;2023-03-23T07:46:50;51.79;43.16;63.14;;
58303;Laerm;44109;52.398;7.024;2023-03-23T07:49:18;51.36;42.55;70.27;;
58303;Laerm;44109;52.398;7.024;2023-03-23T07:51:47;50.82;41.55;68.17;;
58303;Laerm;44109;52.398;7.024;2023-03-23T07:54:15;65.40;43.32;90.68;;
58303;Laerm;44109;52.398;7.024;2023-03-23T07:56:43;60.77;43.89;84.68;;
58303;Laerm;44109;52.398;7.024;2023-03-23T07:59:11;58.56;43.99;79.81;;
58303;Laerm;44109;52.398;7.024;2023-03-23T08:01:39;81.64;47.66;102.83;;
58303;Laerm;44109;52.398;7.024;2023-03-23T08:04:07;81.20;54.79;103.40;;
58303;Laerm;44109;52.398;7.024;2023-03-23T08:06:35;72.82;54.15;91.30;;
58303;Laerm;44109;52.398;7.024;2023-03-23T08:09:04;66.79;49.66;90.37;;
58303;Laerm;44109;52.398;7.024;2023-03-23T08:11:35;67.90;46.44;88.21;;
58303;Laerm;44109;52.398;7.024;2023-03-23T08:14:03;63.54;44.11;94.89;;
58303;Laerm;44109;52.398;7.024;2023-03-23T08:16:31;61.76;42.30;88.37;;
58303;Laerm;44109;52.398;7.024;2023-03-23T08:18:59;71.18;49.74;101.71;;
58303;Laerm;44109;52.398;7.024;2023-03-23T08:21:26;69.86;51.68;93.44;;
58303;Laerm;44109;52.398;7.024;2023-03-23T08:23:56;61.86;44.15;86.51;;
58303;Laerm;44109;52.398;7.024;2023-03-23T08:26:25;55.27;42.18;79.51;;
58303;Laerm;44109;52.398;7.024;2023-03-23T08:28:53;59.52;45.70;85.46;;
58303;Laerm;44109;52.398;7.024;2023-03-23T08:31:21;61.09;47.57;86.38;;
58303;Laerm;44109;52.398;7.024;2023-03-23T08:33:48;60.36;46.78;90.66;;
58303;Laerm;44109;52.398;7.024;2023-03-23T08:36:16;60.49;47.97;81.05;;
58303;Laerm;44109;52.398;7.024;2023-03-23T08:38:44;59.63;44.16;81.58;;
58303;Laerm;44109;52.398;7.024;2023-03-23T08:41:11;58.08;40.59;83.69;;
58303;Laerm;44109;52.398;7.024;2023-03-23T08:43:40;59.43;40.07;83.22;;
58303;Laerm;44109;52.398;7.024;2023-03-23T08:46:08;55.80;41.51;82.76;;
58303;Laerm;44109;52.398;7.024;2023-03-23T08:48:37;50.96;39.90;75.56;;
58303;Laerm;44109;52.398;7.024;2023-03-23T08:51:06;51.63;41.26;72.61;;
58303;Laerm;44109;52.398;7.024;2023-03-23T08:53:34;53.55;42.74;75.75;;
58303;Laerm;44109;52.398;7.024;2023-03-23T08:56:05;60.96;44.17;89.20;;
58303;Laerm;44109;52.398;7.024;2023-03-23T08:58:33;56.13;43.01;82.89;;
58303;Laerm;44109;52.398;7.024;2023-03-23T09:01:04;70.91;46.60;100.57;;
58303;Laerm;44109;52.398;7.024;2023-03-23T09:03:33;71.06;43.32;97.77;;
58303;Laerm;44109;52.398;7.024;2023-03-23T09:06:03;63.63;42.23;88.29;;
58303;Laerm;44109;52.398;7.024;2023-03-23T09:08:33;54.13;39.13;76.43;;
58303;Laerm;44109;52.398;7.024;2023-03-23T09:11:03;52.49;41.85;72.34;;
58303;Laerm;44109;52.398;7.024;2023-03-23T09:13:32;52.80;41.78;80.82;;
58303;Laerm;44109;52.398;7.024;2023-03-23T09:16:00;50.88;41.52;71.13;;
58303;Laerm;44109;52.398;7.024;2023-03-23T09:18:29;51.31;41.23;77.88;;
58303;Laerm;44109;52.398;7.024;2023-03-23T09:20:58;51.91;43.34;73.94;;
58303;Laerm;44109;52.398;7.024;2023-03-23T09:23:27;52.21;40.17;78.37;;
58303;Laerm;44109;52.398;7.024;2023-03-23T09:25:55;58.00;44.31;89.74;;
58303;Laerm;44109;52.398;7.024;2023-03-23T09:28:22;54.73;42.66;72.54;;
58303;Laerm;44109;52.398;7.024;2023-03-23T09:30:50;54.01;43.22;80.96;;
58303;Laerm;44109;52.398;7.024;2023-03-23T09:33:18;53.17;43.59;66.94;;
58303;Laerm;44109;52.398;7.024;2023-03-23T09:35:47;54.55;42.50;85.74;;
58303;Laerm;44109;52.398;7.024;2023-03-23T09:38:15;56.65;45.15;80.82;;
58303;Laerm;44109;52.398;7.024;2023-03-23T09:40:47;52.37;41.91;70.39;;
58303;Laerm;44109;52.398;7.024;2023-03-23T09:43:42;52.59;44.62;66.87;;
58303;Laerm;44109;52.398;7.024;2023-03-23T09:46:32;57.58;41.27;80.83;;
58303;Laerm;44109;52.398;7.024;2023-03-23T09:49:08;54.40;42.45;74.23;;
58303;Laerm;44109;52.398;7.024;2023-03-23T09:51:46;52.69;42.11;71.41;;
58303;Laerm;44109;52.398;7.024;2023-03-23T09:54:21;52.15;43.84;67.57;;
58303;Laerm;44109;52.398;7.024;2023-03-23T09:56:51;52.52;44.99;68.79;;
58303;Laerm;44109;52.398;7.024;2023-03-23T09:59:27;52.30;42.69;63.28;;
58303;Laerm;44109;52.398;7.024;2023-03-23T10:02:01;55.39;43.01;81.10;;
58303;Laerm;44109;52.398;7.024;2023-03-23T10:04:38;54.78;43.11;80.73;;
58303;Laerm;44109;52.398;7.024;2023-03-23T10:07:13;52.44;42.78;73.14;;
58303;Laerm;44109;52.398;7.024;2023-03-23T10:09:44;52.30;39.91;71.75;;
58303;Laerm;44109;52.398;7.024;2023-03-23T10:12:31;52.02;39.46;72.28;;
58303;Laerm;44109;52.398;7.024;2023-03-23T10:15:13;51.94;40.32;68.72;;
58303;Laerm;44109;52.398;7.024;2023-03-23T10:17:48;56.32;43.45;82.43;;
58303;Laerm;44109;52.398;7.024;2023-03-23T10:20:33;50.97;41.47;64.20;;
58303;Laerm;44109;52.398;7.024;2023-03-23T10:23:20;52.97;42.67;68.38;;
58303;Laerm;44109;52.398;7.024;2023-03-23T10:25:57;53.06;43.27;70.51;;
58303;Laerm;44109;52.398;7.024;2023-03-23T10:28:37;50.90;39.79;61.36;;
58303;Laerm;44109;52.398;7.024;2023-03-23T10:31:11;55.71;40.81;79.16;;
58303;Laerm;44109;52.398;7.024;2023-03-23T10:33:43;57.62;43.77;77.93;;
58303;Laerm;44109;52.398;7.024;2023-03-23T10:36:17;58.16;41.56;78.37;;
58303;Laerm;44109;52.398;7.024;2023-03-23T10:38:57;57.67;41.65;77.49;;
58303;Laerm;44109;52.398;7.024;2023-03-23T10:41:25;54.71;41.01;77.45;;
58303;Laerm;44109;52.398;7.024;2023-03-23T10:43:53;51.96;41.94;68.42;;
58303;Laerm;44109;52.398;7.024;2023-03-23T10:46:33;51.48;40.07;65.20;;
58303;Laerm;44109;52.398;7.024;2023-03-23T10:49:08;51.06;41.07;61.66;;
58303;Laerm;44109;52.398;7.024;2023-03-23T10:51:44;51.69;42.73;64.29;;
58303;Laerm;44109;52.398;7.024;2023-03-23T10:54:27;51.14;41.24;63.66;;
58303;Laerm;44109;52.398;7.024;2023-03-23T10:56:59;51.27;41.51;66.55;;
58303;Laerm;44109;52.398;7.024;2023-03-23T10:59:29;52.73;43.77;71.65;;
58303;Laerm;44109;52.398;7.024;2023-03-23T11:02:03;51.72;41.64;66.65;;
58303;Laerm;44109;52.398;7.024;2023-03-23T11:04:39;52.16;42.69;64.56;;
58303;Laerm;44109;52.398;7.024;2023-03-23T11:07:20;52.26;42.70;61.73;;
58303;Laerm;44109;52.398;7.024;2023-03-23T11:09:55;52.01;42.59;62.20;;
58303;Laerm;44109;52.398;7.024;2023-03-23T11:12:25;52.22;39.75;63.97;;
58303;Laerm;44109;52.398;7.024;2023-03-23T11:15:15;52.46;43.42;65.95;;
58303;Laerm;44109;52.398;7.024;2023-03-23T11:17:55;52.15;42.54;61.13;;
58303;Laerm;44109;52.398;7.024;2023-03-23T11:20:26;53.77;42.63;71.35;;
58303;Laerm;44109;52.398;7.024;2023-03-23T11:22:55;54.72;39.36;73.25;;
58303;Laerm;44109;52.398;7.024;2023-03-23T11:25:24;52.31;42.39;71.01;;
58303;Laerm;44109;52.398;7.024;2023-03-23T11:27:53;52.32;39.12;73.01;;
58303;Laerm;44109;52.398;7.024;2023-03-23T11:30:27;51.51;41.78;68.44;;
58303;Laerm;44109;52.398;7.024;2023-03-23T11:33:01;57.80;40.92;76.46;;
58303;Laerm;44109;52.398;7.024;2023-03-23T11:35:30;51.72;41.09;67.51;;
58303;Laerm;44109;52.398;7.024;2023-03-23T11:37:58;54.02;43.72;69.26;;
58303;Laerm;44109;52.398;7.024;2023-03-23T11:40:31;54.78;45.63;65.19;;
58303;Laerm;44109;52.398;7.024;2023-03-23T11:43:09;53.84;46.16;68.51;;
58303;Laerm;44109;52.398;7.024;2023-03-23T11:45:50;51.99;43.17;61.45;;
58303;Laerm;44109;52.398;7.024;2023-03-23T11:48:36;51.85;40.28;67.45;;
58303;Laerm;44109;52.398;7.024;2023-03-23T11:51:14;52.85;41.62;77.16;;
58303;Laerm;44109;52.398;7.024;2023-03-23T11:53:52;52.02;41.66;68.49;;
58303;Laerm;44109;52.398;7.024;2023-03-23T11:56:29;52.07;42.40;61.88;;
58303;Laerm;44109;52.398;7.024;2023-03-23T11:58:58;53.09;45.76;66.14;;
58303;Laerm;44109;52.398;7.024;2023-03-23T12:01:47;51.67;44.15;66.41;;
58303;Laerm;44109;52.398;7.024;2023-03-23T12:04:37;52.01;42.28;69.70;;
58303;Laerm;44109;52.398;7.024;2023-03-23T12:07:24;51.48;42.44;63.52;;
58303;Laerm;44109;52.398;7.024;2023-03-23T12:10:11;52.92;43.57;73.94;;
58303;Laerm;44109;52.398;7.024;2023-03-23T12:12:58;52.17;42.97;60.84;;
58303;Laerm;44109;52.398;7.024;2023-03-23T12:15:36;51.82;41.55;64.21;;
58303;Laerm;44109;52.398;7.024;2023-03-23T12:18:17;52.40;41.12;65.12;;
58303;Laerm;44109;52.398;7.024;2023-03-23T12:21:06;53.24;41.32;74.06;;
58303;Laerm;44109;52.398;7.024;2023-03-23T12:23:56;52.60;43.39;69.95;;
58303;Laerm;44109;52.398;7.024;2023-03-23T12:26:29;51.90;41.95;64.50;;
58303;Laerm;44109;52.398;7.024;2023-03-23T12:32:23;52.71;43.95;66.07;;
58303;Laerm;44109;52.398;7.024;2023-03-23T12:35:04;54.54;42.38;76.69;;
58303;Laerm;44109;52.398;7.024;2023-03-23T12:37:51;76.42;44.04;104.70;;
58303;Laerm;44109;52.398;7.024;2023-03-23T12:40:49;77.01;43.70;105.66;;
58303;Laerm;44109;52.398;7.024;2023-03-23T12:43:35;54.25;42.94;69.32;;
58303;Laerm;44109;52.398;7.024;2023-03-23T12:46:38;54.82;47.19;72.03;;
58303;Laerm;44109;52.398;7.024;2023-03-23T12:49:14;53.95;41.83;72.59;;
58303;Laerm;44109;52.398;7.024;2023-03-23T12:51:54;50.68;42.27;62.76;;
58303;Laerm;44109;52.398;7.024;2023-03-23T12:54:32;50.77;38.95;60.16;;
58303;Laerm;44109;52.398;7.024;2023-03-23T12:57:10;53.54;42.46;79.69;;
58303;Laerm;44109;52.398;7.024;2023-03-23T12:59:46;54.77;42.30;73.55;;
58303;Laerm;44109;52.398;7.024;2023-03-23T13:02:22;54.10;43.36;67.08;;
58303;Laerm;44109;52.398;7.024;2023-03-23T13:05:00;51.56;42.24;72.32;;
58303;Laerm;44109;52.398;7.024;2023-03-23T13:07:42;62.97;41.16;85.74;;
58303;Laerm;44109;52.398;7.024;2023-03-23T13:10:29;64.27;45.01;84.50;;
58303;Laerm;44109;52.398;7.024;2023-03-23T13:12:59;52.03;43.12;63.49;;
58303;Laerm;44109;52.398;7.024;2023-03-23T13:15:37;52.30;43.17;64.23;;
58303;Laerm;44109;52.398;7.024;2023-03-23T13:18:17;53.03;42.01;74.83;;
58303;Laerm;44109;52.398;7.024;2023-03-23T13:20:58;50.27;41.93;59.54;;
58303;Laerm;44109;52.398;7.024;2023-03-23T13:23:33;52.71;39.70;71.28;;
58303;Laerm;44109;52.398;7.024;2023-03-23T13:26:07;53.31;40.06;71.87;;
58303;Laerm;44109;52.398;7.024;2023-03-23T13:28:53;51.49;38.55;69.66;;
58303;Laerm;44109;52.398;7.024;2023-03-23T13:31:24;54.93;40.88;82.99;;
58303;Laerm;44109;52.398;7.024;2023-03-23T13:34:06;56.86;41.51;71.04;;
58303;Laerm;44109;52.398;7.024;2023-03-23T13:36:40;50.92;41.18;69.23;;
58303;Laerm;44109;52.398;7.024;2023-03-23T13:39:20;56.45;41.57;75.32;;
58303;Laerm;44109;52.398;7.024;2023-03-23T13:42:04;61.41;42.64;78.06;;
58303;Laerm;44109;52.398;7.024;2023-03-23T13:44:55;51.25;42.90;61.44;;
58303;Laerm;44109;52.398;7.024;2023-03-23T13:47:34;51.43;43.56;67.35;;
58303;Laerm;44109;52.398;7.024;2023-03-23T13:50:12;53.15;44.84;69.02;;
58303;Laerm;44109;52.398;7.024;2023-03-23T13:52:54;52.60;45.00;65.79;;
58303;Laerm;44109;52.398;7.024;2023-03-23T13:55:39;51.67;43.12;63.67;;
58303;Laerm;44109;52.398;7.024;2023-03-23T13:58:24;50.54;39.59;67.54;;
58303;Laerm;44109;52.398;7.024;2023-03-23T14:01:13;53.55;43.13;73.17;;
58303;Laerm;44109;52.398;7.024;2023-03-23T14:03:46;52.03;39.93;69.09;;
58303;Laerm;44109;52.398;7.024;2023-03-23T14:06:21;51.94;41.91;69.92;;
58303;Laerm;44109;52.398;7.024;2023-03-23T14:08:54;52.75;41.56;64.98;;
58303;Laerm;44109;52.398;7.024;2023-03-23T14:11:26;56.11;43.69;70.82;;
58303;Laerm;44109;52.398;7.024;2023-03-23T14:14:05;55.33;42.87;72.42;;
58303;Laerm;44109;52.398;7.024;2023-03-23T14:16:38;56.86;43.64;71.70;;
58303;Laerm;44109;52.398;7.024;2023-03-23T14:19:15;53.40;43.13;66.58;;
58303;Laerm;44109;52.398;7.024;2023-03-23T14:21:54;53.07;42.07;70.83;;